Latest Coastal Weather Observations for Mallacoota

IDV60701

Issued at 9:21 pm EST Tuesday 7 July 2015 (issued every 10 minutes, with the page automatically refreshed every 10 minutes)

About coastal observations | Map of coastal stations | Coastal observations for VIC | Marine services | Other Formats
Station Details ID: 084084 Name: MALLACOOTA Lat: -37.60 Lon: 149.73 Height: 22.0 m
Data from the previous 72 hours. | See also: Recent months at Mallacoota
Date/Time
EST
Temp

°C
Wind Pressure Rain
since 9am
mm
Weather Cloud Vis
km
Sea
Height
m
Swell
Dir
 
Speed
knots
Gust
knots
hPa Trend Height
m
Period
s
Dir
07/09:00pm 8.0 W 5 8 1026.1 - 0.2 - - - - - - -
07/08:30pm 7.8 WNW 5 7 1025.8 - 0.0 - - - - - - -
07/08:00pm 7.5 WNW 7 9 1025.6 - 0.0 - - - - - - -
07/07:30pm 9.4 S 9 13 1025.3 - 0.0 - - - - - - -
07/07:00pm 7.9 WNW 6 8 1025.0 - 0.0 - - - - - - -
07/06:30pm 8.3 W 4 5 1024.7 - 0.0 - - - - - - -
07/06:00pm 9.4 SW 6 9 1024.5 - 0.0 - - - - - - -
07/05:30pm 9.4 W 4 6 1023.9 - 0.0 - - - - - - -
07/05:00pm 10.1 W 5 7 1023.7 - 0.0 - - - - - - -
07/04:30pm 11.0 SW 8 13 1023.3 - 0.0 - - - - - - -
07/04:00pm 12.0 SSW 9 19 1022.9 - 0.0 - - - - - - -
07/03:30pm 12.7 SSW 9 14 1022.7 - 0.0 - - - - - - -
07/03:00pm 12.4 SW 7 11 1022.5 - 0.0 - - - - - - -
07/02:30pm 13.3 SSW 9 13 1022.0 - 0.0 - - - - - - -
07/02:00pm 13.5 SSW 10 15 1021.8 - 0.0 - - - - - - -
07/01:30pm 13.8 SSW 7 11 1021.8 - 0.0 - - - - - - -
07/01:00pm 13.9 SSW 6 9 1021.9 - 0.0 - - - - - - -
07/12:30pm 13.7 SSW 9 13 1021.9 - 0.0 - - - - - - -
07/12:00pm 13.9 SSW 8 14 1022.2 - 0.0 - - - - - - -
07/11:30am 13.3 SSW 9 13 1022.2 - 0.0 - - - - - - -
07/11:00am 12.9 S 9 15 1022.3 - 0.0 - - - - - - -
07/10:30am 13.2 SW 5 8 1022.2 - 0.0 - - - - - - -
07/10:00am 11.6 W 6 8 1022.1 - 0.0 - - - - - - -
07/09:30am 11.2 SW 5 8 1021.7 - 0.0 - - - - - - -
07/09:00am 10.6 SW 6 13 1021.4 - 25.8 - - - - - - -
07/08:30am 12.4 SSW 10 16 1020.9 - 25.8 - - - - - - -
07/08:00am 12.3 S 13 19 1020.6 - 25.8 - - - - - - -
07/07:30am 12.0 SSW 9 16 1020.3 - 25.8 - - - - - - -
07/07:00am 12.4 S 14 21 1019.8 - 25.8 - - - - - - -
07/06:30am 11.9 SSW 11 18 1019.2 - 25.8 - - - - - - -
07/06:00am 11.8 SSW 9 15 1018.7 - 25.8 - - - - - - -
07/05:30am 12.1 SSW 11 18 1018.3 - 25.8 - - - - - - -
07/05:00am 12.0 SSW 10 19 1018.0 - 25.8 - - - - - - -
07/04:30am 10.3 W 5 10 1017.7 - 25.8 - - - - - - -
07/04:00am 12.2 S 11 19 1017.5 - 25.8 - - - - - - -
07/03:30am 11.0 WSW 7 14 1017.4 - 25.8 - - - - - - -
07/03:00am 11.4 W 7 19 1017.3 - 25.8 - - - - - - -
07/02:30am 11.9 SE 12 19 1016.9 - 25.8 - - - - - - -
07/02:00am 11.6 S 9 16 1016.8 - 25.6 - - - - - - -
07/01:30am 9.6 WNW 6 10 1016.5 - 25.6 - - - - - - -
07/01:00am 9.3 W 6 10 1016.6 - 21.8 - - - - - - -
07/12:30am 9.3 W 8 13 1016.5 - 9.4 - - - - - - -
07/12:00am 9.5 WSW 9 15 1016.3 - 4.4 - - - - - - -
 
Date/Time
EST
Temp

°C
Wind Pressure Rain
since 9am
mm
Weather Cloud Vis
km
Sea
Height
m
Swell
Dir
 
Speed
knots
Gust
knots
hPa Trend Height
m
Period
s
Dir
06/11:30pm 9.7 WSW 7 12 1016.1 - 1.6 - - - - - - -
06/11:00pm 9.9 WSW 9 14 1015.9 - 0.2 - - - - - - -
06/10:30pm 10.3 WSW 12 22 1015.3 - 0.0 - - - - - - -
06/10:00pm 10.4 W 11 20 1015.1 - 0.0 - - - - - - -
06/09:30pm 10.4 W 10 16 1015.0 - 0.0 - - - - - - -
06/09:00pm 10.3 W 9 17 1015.0 - 0.0 - - - - - - -
06/08:30pm 10.6 W 10 15 1014.9 - 0.0 - - - - - - -
06/08:00pm 10.6 W 9 17 1014.7 - 0.0 - - - - - - -
06/07:30pm 10.6 W 9 14 1014.7 - 0.0 - - - - - - -
06/07:00pm 10.9 W 10 19 1014.6 - 0.0 - - - - - - -
06/06:30pm 11.1 WSW 9 14 1014.5 - 0.0 - - - - - - -
06/06:00pm 10.9 W 8 15 1014.4 - 0.0 - - - - - - -
06/05:30pm 11.0 W 9 16 1014.1 - 0.0 - - - - - - -
06/05:00pm 10.9 W 7 15 1013.8 - 0.0 - - - - - - -
06/04:30pm 11.4 WSW 10 15 1013.7 - 0.0 - - - - - - -
06/04:00pm 12.1 WSW 7 12 1013.5 - 0.0 - - - - - - -
06/03:30pm 12.4 WSW 7 13 1013.3 - 0.0 - - - - - - -
06/03:00pm 12.6 WSW 7 11 1013.0 - 0.0 - - - - - - -
06/02:30pm 13.2 WSW 8 13 1012.9 - 0.0 - - - - - - -
06/02:00pm 13.5 WSW 8 16 1012.9 - 0.0 - - - - - - -
06/01:30pm 13.6 WSW 9 17 1013.1 - 0.0 - - - - - - -
06/01:00pm 14.7 SW 7 15 1013.2 - 0.0 - - - - - - -
06/12:30pm 14.1 WSW 7 12 1013.5 - 0.0 - - - - - - -
06/12:00pm 14.9 WSW 8 13 1013.7 - 0.0 - - - - - - -
06/11:30am 14.2 SW 8 12 1014.0 - 0.0 - - - - - - -
06/11:00am 14.7 W 7 11 1014.2 - 0.0 - - - - - - -
06/10:30am 13.4 W 6 10 1014.4 - 0.0 - - - - - - -
06/10:00am 12.3 WNW 5 9 1014.5 - 0.0 - - - - - - -
06/09:30am 10.8 WNW 5 8 1014.7 - 0.0 - - - - - - -
06/09:00am 9.2 WNW 5 9 1014.7 - 0.0 - - - - - - -
06/08:30am 7.5 NW 4 7 1014.6 - 0.0 - - - - - - -
06/08:00am 5.3 NNW 5 6 1014.7 - 0.0 - - - - - - -
06/07:30am 4.7 NW 5 7 1014.6 - 0.0 - - - - - - -
06/07:00am 4.9 NW 5 7 1014.6 - 0.0 - - - - - - -
06/06:30am 4.8 NNW 4 5 1014.5 - 0.0 - - - - - - -
06/06:00am 5.2 NW 4 6 1014.5 - 0.0 - - - - - - -
06/05:30am 5.9 NW 6 7 1014.5 - 0.0 - - - - - - -
06/05:00am 6.0 NW 6 8 1014.5 - 0.0 - - - - - - -
06/04:30am 6.4 NW 6 8 1014.5 - 0.0 - - - - - - -
06/04:00am 6.2 WNW 4 6 1014.7 - 0.0 - - - - - - -
06/03:30am 6.1 WSW 4 6 1014.8 - 0.0 - - - - - - -
06/03:00am 6.9 WNW 7 9 1015.0 - 0.0 - - - - - - -
06/02:30am 7.1 WNW 6 8 1015.3 - 0.0 - - - - - - -
06/02:00am 7.1 NW 7 9 1015.5 - 0.0 - - - - - - -
06/01:30am 7.3 NW 7 9 1015.6 - 0.0 - - - - - - -
06/01:00am 7.4 WNW 7 9 1015.8 - 0.0 - - - - - - -
06/12:30am 7.7 WNW 7 9 1016.1 - 0.0 - - - - - - -
06/12:00am 7.8 WNW 6 7 1016.3 - 0.0 - - - - - - -
 
Date/Time
EST
Temp

°C
Wind Pressure Rain
since 9am
mm
Weather Cloud Vis
km
Sea
Height
m
Swell
Dir
 
Speed
knots
Gust
knots
hPa Trend Height
m
Period
s
Dir
05/11:30pm 8.5 WNW 7 8 1016.4 - 0.0 - - - - - - -
05/11:00pm 8.1 NW 7 9 1016.5 - 0.0 - - - - - - -
05/10:30pm 8.1 WNW 6 7 1016.6 - 0.0 - - - - - - -
05/10:00pm 8.2 WNW 6 8 1016.8 - 0.0 - - - - - - -
05/09:30pm 8.3 WNW 6 7 1017.0 - 0.0 - - - - - - -
05/09:00pm 8.9 NW 6 7 1017.1 - 0.0 - - - - - - -
05/08:30pm 9.6 NW 6 8 1017.4 - 0.0 - - - - - - -
05/08:00pm 9.0 NW 5 7 1017.5 - 0.0 - - - - - - -
05/07:30pm 8.9 WNW 5 6 1017.5 - 0.0 - - - - - - -
05/07:00pm 9.4 WNW 5 6 1017.3 - 0.0 - - - - - - -
05/06:30pm 10.0 WNW 5 5 1017.2 - 0.0 - - - - - - -
05/06:00pm 10.8 WNW 4 5 1017.2 - 0.0 - - - - - - -
05/05:30pm 11.0 WNW 4 5 1017.1 - 0.0 - - - - - - -
05/05:00pm 11.2 W 4 5 1016.9 - 0.0 - - - - - - -
05/04:30pm 12.6 W 3 3 1016.9 - 0.0 - - - - - - -
05/04:00pm 14.4 CALM 0 0 1016.9 - 0.0 - - - - - - -
05/03:30pm 15.0 CALM 0 4 1016.8 - 0.0 - - - - - - -
05/03:00pm 14.9 ESE 3 4 1016.8 - 0.0 - - - - - - -
05/02:30pm 14.8 ESE 4 5 1016.9 - 0.0 - - - - - - -
05/02:00pm 15.1 SE 5 7 1017.0 - 0.0 - - - - - - -
05/01:30pm 16.0 WSW 5 7 1017.2 - 0.0 - - - - - - -
05/01:00pm 16.2 W 4 7 1017.4 - 0.0 - - - - - - -
05/12:30pm 16.2 WNW 5 7 1017.7 - 0.0 - - - - - - -
05/12:00pm 15.6 NW 4 7 1018.1 - 0.0 - - - - - - -
05/11:30am 14.7 NW 5 7 1018.8 - 0.0 - - - - - - -
05/11:00am 13.5 NW 3 4 1019.3 - 0.0 - - - - - - -
05/10:30am 12.3 NW 4 5 1019.6 - 0.0 - - - - - - -
05/10:00am 11.7 NW 5 8 1019.6 - 0.0 - - - - - - -
05/09:30am 10.8 NNW 4 6 1019.5 - 0.0 - - - - - - -
05/09:00am 10.1 NW 5 7 1019.3 - 0.0 - - - - - - -
05/08:30am 9.3 NNW 5 6 1019.2 - 0.0 - - - - - - -
05/08:00am 9.0 NNW 5 7 1019.3 - 0.0 - - - - - - -
05/07:30am 8.6 NW 5 6 1019.1 - 0.0 - - - - - - -
05/07:00am 8.6 NW 5 8 1018.9 - 0.0 - - - - - - -
05/06:30am 8.1 NW 4 5 1018.7 - 0.0 - - - - - - -
05/06:00am 8.6 NW 5 7 1018.5 - 0.0 - - - - - - -
05/05:30am 8.5 NW 4 5 1018.5 - 0.0 - - - - - - -
05/05:00am 8.7 NW 4 6 1018.5 - 0.0 - - - - - - -
05/04:30am 8.3 NW 4 6 1018.4 - 0.0 - - - - - - -
05/04:00am 8.3 NW 3 5 1018.4 - 0.0 - - - - - - -
05/03:30am 8.2 NNW 4 6 1018.4 - 0.0 - - - - - - -
05/03:00am 10.3 WNW 4 7 1018.6 - 0.0 - - - - - - -
05/02:30am 10.2 W 4 7 1018.8 - 0.0 - - - - - - -
05/02:00am 9.7 NW 4 6 1018.9 - 0.0 - - - - - - -
05/01:30am 10.3 W 4 7 1018.9 - 0.0 - - - - - - -
05/01:00am 10.4 W 5 9 1019.0 - 0.0 - - - - - - -
05/12:30am 9.7 WNW 5 8 1019.2 - 0.0 - - - - - - -
05/12:00am 10.1 WNW 5 8 1019.3 - 0.0 - - - - - - -
 
Date/Time
EST
Temp

°C
Wind Pressure Rain
since 9am
mm
Weather Cloud Vis
km
Sea
Height
m
Swell
Dir
 
Speed
knots
Gust
knots
hPa Trend Height
m
Period
s
Dir
04/11:30pm 9.7 WNW 5 7 1019.5 - 0.0 - - - - - - -
04/11:00pm 8.9 WNW 4 7 1019.5 - 0.0 - - - - - - -
04/10:30pm 8.3 WNW 4 5 1019.5 - 0.0 - - - - - - -
04/10:00pm 8.6 NW 4 5 1019.5 - 0.0 - - - - - - -
04/09:30pm 10.6 W 4 6 1019.6 - 0.0 - - - - - - -

Other Formats:

Comma delimited format used in spreadsheet applications
http://www.bom.gov.au/fwo/IDV60701/IDV60701.94935.axf

JavaScript Object Notation format (JSON) in row-major order
http://www.bom.gov.au/fwo/IDV60701/IDV60701.94935.json